createdAt,value
2023-03-26T00:01:29.622Z,7.25
2023-03-26T00:03:57.970Z,6.99
2023-03-26T00:06:36.728Z,7.17
2023-03-26T00:09:06.265Z,6.92
2023-03-26T00:11:33.551Z,6.76
2023-03-26T00:14:00.334Z,7.32
2023-03-26T00:16:31.181Z,7.32
2023-03-26T00:18:59.718Z,7.01
2023-03-26T00:21:28.736Z,6.94
2023-03-26T00:23:59.642Z,7.16
2023-03-26T00:26:27.488Z,6.73
2023-03-26T00:28:59.899Z,7.55
2023-03-26T00:31:29.873Z,7.62
2023-03-26T00:33:56.799Z,7.55
2023-03-26T00:36:27.988Z,6.85
2023-03-26T00:38:55.437Z,7.65
2023-03-26T00:41:25.950Z,7.72
2023-03-26T00:43:56.490Z,7.68
2023-03-26T00:46:24.537Z,7.79
2023-03-26T00:48:51.433Z,7.84
2023-03-26T00:51:20.693Z,7.51
2023-03-26T00:53:48.965Z,7.20
2023-03-26T00:56:16.249Z,7.09
2023-03-26T00:58:43.595Z,7.70
2023-03-26T01:01:14.255Z,7.77
2023-03-26T01:03:53.034Z,7.66
2023-03-26T01:06:36.509Z,7.62
2023-03-26T01:09:17.377Z,7.83
2023-03-26T01:11:45.123Z,7.84
2023-03-26T01:14:16.876Z,7.09
2023-03-26T01:16:46.820Z,7.96
2023-03-26T01:19:29.663Z,7.92
2023-03-26T01:21:59.013Z,7.60
2023-03-26T01:24:26.318Z,7.74
2023-03-26T01:27:26.798Z,8.10
2023-03-26T01:29:55.584Z,8.11
2023-03-26T01:32:45.363Z,7.99
2023-03-26T01:35:24.688Z,7.98
2023-03-26T01:37:52.604Z,7.85
2023-03-26T01:40:38.572Z,7.46
2023-03-26T01:43:18.029Z,7.47
2023-03-26T01:45:47.799Z,7.63
2023-03-26T01:48:16.450Z,7.34
2023-03-26T01:50:43.775Z,7.55
2023-03-26T01:53:13.402Z,7.30
2023-03-26T01:55:56.240Z,7.89
2023-03-26T01:58:34.889Z,7.52
2023-03-26T02:01:31.073Z,7.95
2023-03-26T02:04:08.845Z,7.32
2023-03-26T02:06:44.612Z,7.52
2023-03-26T02:09:24.873Z,8.01
2023-03-26T02:11:51.878Z,7.66
2023-03-26T02:14:18.926Z,7.73
2023-03-26T02:16:46.837Z,7.92
2023-03-26T02:19:21.408Z,7.21
2023-03-26T02:21:51.449Z,7.16
2023-03-26T02:24:20.288Z,7.80
2023-03-26T02:26:48.503Z,7.80
2023-03-26T02:29:20.375Z,7.80
2023-03-26T02:31:49.076Z,6.73
2023-03-26T02:34:16.997Z,7.65
2023-03-26T02:36:50.515Z,7.69
2023-03-26T02:39:17.491Z,7.70
2023-03-26T02:41:52.075Z,7.59
2023-03-26T02:44:19.035Z,7.17
2023-03-26T02:46:58.121Z,7.41
2023-03-26T02:49:44.113Z,6.94
2023-03-26T02:52:18.545Z,6.83
2023-03-26T02:54:47.066Z,7.45
2023-03-26T02:57:20.046Z,7.40
2023-03-26T03:00:15.008Z,7.45
2023-03-26T03:02:48.534Z,7.42
2023-03-26T03:05:33.802Z,7.48
2023-03-26T03:08:24.327Z,7.56
2023-03-26T03:11:24.858Z,7.60
2023-03-26T03:13:53.400Z,7.62
2023-03-26T03:16:23.357Z,7.79
2023-03-26T03:18:54.573Z,7.83
2023-03-26T03:21:23.938Z,7.79
2023-03-26T03:23:51.254Z,7.90
2023-03-26T03:26:21.915Z,7.91
2023-03-26T03:28:52.140Z,7.90
2023-03-26T03:31:18.982Z,7.92
2023-03-26T03:33:46.546Z,7.74
2023-03-26T03:36:19.706Z,7.65
2023-03-26T03:38:48.975Z,7.94
2023-03-26T03:41:19.450Z,7.90
2023-03-26T03:43:47.158Z,7.36
2023-03-26T03:46:23.156Z,7.84
2023-03-26T03:48:50.357Z,7.85
2023-03-26T03:51:22.627Z,7.77
2023-03-26T03:53:55.810Z,7.86
2023-03-26T03:56:34.194Z,6.98
2023-03-26T03:59:27.033Z,7.71
2023-03-26T04:01:53.928Z,7.38
2023-03-26T04:04:28.790Z,7.80
2023-03-26T04:07:00.278Z,7.67
2023-03-26T04:09:34.098Z,7.90
2023-03-26T04:12:05.976Z,7.74
2023-03-26T04:14:39.774Z,8.06
2023-03-26T04:17:15.459Z,7.79
2023-03-26T04:19:44.297Z,8.05
2023-03-26T04:22:13.815Z,7.71
2023-03-26T04:24:54.458Z,8.19
2023-03-26T04:27:32.121Z,7.85
2023-03-26T04:30:20.648Z,8.14
2023-03-26T04:32:58.608Z,6.76
2023-03-26T04:35:30.410Z,8.13
2023-03-26T04:37:57.733Z,7.52
2023-03-26T04:40:34.715Z,7.78
2023-03-26T04:43:14.436Z,7.60
2023-03-26T04:46:02.911Z,8.14
2023-03-26T04:48:32.116Z,8.15
2023-03-26T04:50:59.277Z,8.06
2023-03-26T04:53:26.607Z,7.90
2023-03-26T04:56:51.191Z,7.56
2023-03-26T04:59:30.226Z,7.42
2023-03-26T05:01:59.919Z,7.68
2023-03-26T05:04:34.092Z,7.50
2023-03-26T05:07:02.220Z,7.40
2023-03-26T05:09:46.137Z,7.35
2023-03-26T05:12:31.490Z,6.82
2023-03-26T05:15:09.774Z,7.20
2023-03-26T05:17:56.590Z,7.27
2023-03-26T05:20:30.219Z,7.93
2023-03-26T05:22:57.377Z,8.11
2023-03-26T05:25:35.841Z,8.18
2023-03-26T05:28:05.869Z,8.05
2023-03-26T05:31:21.503Z,7.96
2023-03-26T05:33:50.830Z,8.04
2023-03-26T05:36:19.154Z,8.20
2023-03-26T05:38:59.088Z,8.16
2023-03-26T05:41:44.613Z,8.30
2023-03-26T05:44:11.670Z,8.36
2023-03-26T05:46:38.943Z,8.43
2023-03-26T05:49:06.508Z,8.18
2023-03-26T05:51:35.838Z,8.49
2023-03-26T05:54:21.171Z,8.46
2023-03-26T05:57:06.683Z,7.67
2023-03-26T05:59:52.269Z,8.24
2023-03-26T06:02:37.678Z,8.52
2023-03-26T06:05:37.292Z,8.54
2023-03-26T06:08:19.528Z,8.55
2023-03-26T06:11:05.568Z,8.46
2023-03-26T06:13:35.757Z,8.57
2023-03-26T06:16:02.788Z,8.61
2023-03-26T06:18:32.833Z,8.34
2023-03-26T06:21:18.419Z,8.47
2023-03-26T06:24:05.954Z,8.21
2023-03-26T06:27:04.059Z,8.67
2023-03-26T06:29:48.449Z,8.37
2023-03-26T06:32:25.509Z,8.74
2023-03-26T06:34:56.909Z,8.31
2023-03-26T06:37:24.184Z,8.51
2023-03-26T06:39:56.602Z,8.64
2023-03-26T06:43:07.450Z,8.38
2023-03-26T06:45:52.583Z,8.70
2023-03-26T06:48:38.637Z,8.99
2023-03-26T06:51:18.274Z,9.03
2023-03-26T06:54:11.372Z,8.45
2023-03-26T06:56:56.848Z,8.77
2023-03-26T06:59:32.583Z,9.07
2023-03-26T07:02:19.219Z,8.83
2023-03-26T07:05:09.929Z,8.77
2023-03-26T07:07:55.930Z,8.69
2023-03-26T07:10:41.745Z,8.29
2023-03-26T07:13:28.574Z,8.05
2023-03-26T07:16:15.271Z,8.57
2023-03-26T07:19:10.945Z,8.57
2023-03-26T07:21:40.094Z,8.69
2023-03-26T07:24:23.855Z,8.58
2023-03-26T07:27:32.412Z,7.75
2023-03-26T07:30:05.872Z,9.31
2023-03-26T07:33:35.666Z,9.46
2023-03-26T07:36:47.702Z,9.48
2023-03-26T07:39:59.273Z,9.28
2023-03-26T07:42:59.305Z,8.99
2023-03-26T07:45:45.990Z,8.60
2023-03-26T07:48:49.837Z,8.45
2023-03-26T07:51:49.617Z,8.12
2023-03-26T07:54:30.589Z,7.81
2023-03-26T07:58:04.348Z,8.75
2023-03-26T08:01:00.470Z,8.83
2023-03-26T08:03:42.453Z,9.18
2023-03-26T08:06:44.641Z,9.38
2023-03-26T08:09:49.713Z,9.67
2023-03-26T08:12:50.545Z,10.02
2023-03-26T08:15:29.520Z,10.22
2023-03-26T08:18:06.482Z,10.23
2023-03-26T08:20:49.013Z,9.88
2023-03-26T08:23:23.657Z,10.27
2023-03-26T08:26:03.460Z,10.28
2023-03-26T08:28:59.409Z,9.79
2023-03-26T08:31:39.325Z,10.45
2023-03-26T08:34:09.904Z,10.47
2023-03-26T08:36:37.942Z,10.17
2023-03-26T08:39:05.251Z,10.42
2023-03-26T08:41:58.624Z,10.61
2023-03-26T08:44:48.865Z,10.53
2023-03-26T08:47:50.964Z,10.41
2023-03-26T08:50:17.746Z,10.40
2023-03-26T08:53:21.701Z,10.02
2023-03-26T08:56:04.498Z,10.13
2023-03-26T08:59:06.574Z,10.02
2023-03-26T09:02:12.001Z,10.16
2023-03-26T09:05:04.011Z,10.10
2023-03-26T09:07:59.824Z,10.00
2023-03-26T09:10:38.540Z,9.91
2023-03-26T09:13:32.601Z,9.81
2023-03-26T09:16:21.610Z,9.70
2023-03-26T09:19:07.246Z,9.71
2023-03-26T09:22:03.278Z,9.63
2023-03-26T09:25:05.437Z,10.09
2023-03-26T09:28:02.544Z,10.41
2023-03-26T09:30:44.487Z,10.57
2023-03-26T09:33:29.366Z,10.42
2023-03-26T09:36:21.797Z,10.11
2023-03-26T09:39:10.020Z,9.96
2023-03-26T09:41:44.160Z,10.64
2023-03-26T09:44:25.685Z,10.75
2023-03-26T09:47:04.619Z,11.03
2023-03-26T09:49:46.463Z,11.16
2023-03-26T09:52:33.195Z,11.05
2023-03-26T09:55:15.586Z,11.27
2023-03-26T09:58:02.449Z,11.06
2023-03-26T10:00:39.161Z,11.04
2023-03-26T10:03:34.622Z,11.49
2023-03-26T10:06:07.169Z,11.88
2023-03-26T10:08:47.546Z,12.04
2023-03-26T10:11:39.272Z,12.02
2023-03-26T10:14:33.333Z,12.24
2023-03-26T10:17:05.024Z,12.54
2023-03-26T10:19:56.775Z,12.78
2023-03-26T10:22:48.857Z,12.43
2023-03-26T10:25:38.920Z,12.40
2023-03-26T10:28:26.260Z,12.45
2023-03-26T10:31:06.464Z,12.72
2023-03-26T10:33:59.094Z,12.69
2023-03-26T10:36:34.936Z,11.65
2023-03-26T10:39:37.883Z,11.48
2023-03-26T10:42:18.975Z,11.42
2023-03-26T10:45:14.125Z,11.72
2023-03-26T10:47:59.387Z,11.39
2023-03-26T10:50:32.076Z,11.97
2023-03-26T10:53:10.264Z,11.34
2023-03-26T10:55:47.496Z,11.20
2023-03-26T10:58:23.981Z,11.80
2023-03-26T11:01:04.788Z,11.60
2023-03-26T11:03:52.081Z,12.04
2023-03-26T11:06:30.990Z,11.72
2023-03-26T11:09:22.799Z,12.86
2023-03-26T11:12:01.643Z,13.34
2023-03-26T11:14:53.523Z,13.29
2023-03-26T11:17:40.394Z,13.78
2023-03-26T11:20:11.251Z,14.36
2023-03-26T11:22:58.312Z,13.49
2023-03-26T11:25:45.641Z,13.44
2023-03-26T11:28:12.995Z,13.51
2023-03-26T11:30:46.830Z,13.91
2023-03-26T11:33:32.817Z,14.13
2023-03-26T11:36:06.785Z,13.99
2023-03-26T11:38:39.483Z,13.59
2023-03-26T11:41:22.778Z,13.70
2023-03-26T11:44:24.819Z,13.96
2023-03-26T11:46:58.924Z,13.28
2023-03-26T11:49:27.092Z,12.83
2023-03-26T11:51:54.333Z,12.65
2023-03-26T11:54:21.118Z,13.39
2023-03-26T11:57:04.481Z,14.68
2023-03-26T11:59:57.563Z,14.74
2023-03-26T12:02:32.481Z,14.70
2023-03-26T12:05:29.444Z,15.10
2023-03-26T12:08:04.265Z,15.29
2023-03-26T12:10:39.381Z,17.88
2023-03-26T12:13:36.519Z,17.31
2023-03-26T12:16:21.863Z,18.27
2023-03-26T12:19:06.265Z,17.10
2023-03-26T12:21:51.643Z,16.54
2023-03-26T12:24:29.414Z,18.29
2023-03-26T12:27:02.033Z,16.75
2023-03-26T12:29:34.498Z,15.25
2023-03-26T12:32:14.207Z,13.94
2023-03-26T12:34:41.545Z,13.07
2023-03-26T12:37:38.574Z,13.18
2023-03-26T12:40:28.098Z,12.78
2023-03-26T12:44:52.618Z,11.61
2023-03-26T12:45:44.507Z,12.26
2023-03-26T12:48:15.553Z,12.19
2023-03-26T12:51:01.534Z,12.53
2023-03-26T12:53:44.640Z,12.53
2023-03-26T12:56:27.350Z,12.43
2023-03-26T12:59:15.603Z,11.57
2023-03-26T13:01:59.040Z,12.19
2023-03-26T13:05:02.255Z,12.03
2023-03-26T13:07:54.711Z,11.77
2023-03-26T13:10:33.535Z,11.61
2023-03-26T13:13:25.221Z,11.34
2023-03-26T13:15:57.133Z,10.91
2023-03-26T13:18:50.893Z,11.11
2023-03-26T13:21:17.778Z,10.95
2023-03-26T13:24:11.913Z,10.57
2023-03-26T13:27:00.675Z,10.54
2023-03-26T13:29:56.688Z,10.43
2023-03-26T13:33:14.887Z,10.30
2023-03-26T13:35:50.753Z,10.21
2023-03-26T13:38:32.863Z,9.93
2023-03-26T13:41:31.866Z,9.69
2023-03-26T13:44:36.061Z,9.28
2023-03-26T13:47:12.720Z,8.39
2023-03-26T13:49:53.666Z,8.19
2023-03-26T13:52:44.924Z,7.78
2023-03-26T13:55:30.348Z,7.87
2023-03-26T13:58:07.182Z,8.13
2023-03-26T14:01:07.442Z,8.65
2023-03-26T14:03:42.924Z,10.32
2023-03-26T14:06:26.380Z,11.00
2023-03-26T14:09:06.662Z,10.80
2023-03-26T14:11:56.605Z,10.92
2023-03-26T14:14:43.449Z,10.60
2023-03-26T14:17:38.916Z,10.44
2023-03-26T14:20:17.673Z,10.62
2023-03-26T14:22:57.269Z,10.75
2023-03-26T14:25:45.922Z,10.96
2023-03-26T14:28:46.842Z,11.03
2023-03-26T14:34:16.926Z,10.84
2023-03-26T14:37:27.488Z,10.57
2023-03-26T14:40:15.037Z,10.92
2023-03-26T14:42:56.500Z,10.82
2023-03-26T14:45:42.077Z,10.80
2023-03-26T14:48:36.803Z,10.80
2023-03-26T14:51:15.227Z,10.05
2023-03-26T14:53:47.516Z,10.49
2023-03-26T14:56:59.060Z,10.00
2023-03-26T14:59:51.130Z,10.17
2023-03-26T15:02:55.491Z,10.15
2023-03-26T15:05:59.522Z,9.94
2023-03-26T15:08:44.757Z,9.71
2023-03-26T15:11:24.193Z,9.23
2023-03-26T15:14:28.783Z,9.64
2023-03-26T15:17:23.639Z,9.62
2023-03-26T15:19:56.495Z,9.44
2023-03-26T15:23:08.176Z,9.41
2023-03-26T15:26:07.816Z,8.91
2023-03-26T15:28:43.689Z,9.26
2023-03-26T15:31:31.768Z,9.09
2023-03-26T15:34:12.136Z,7.59
2023-03-26T15:37:17.173Z,8.12
2023-03-26T15:40:08.136Z,7.88
2023-03-26T15:42:53.671Z,7.80
2023-03-26T15:45:38.866Z,7.83
2023-03-26T15:48:12.445Z,7.79
2023-03-26T15:50:58.254Z,7.86
2023-03-26T15:53:43.707Z,7.75
2023-03-26T15:56:17.693Z,8.04
2023-03-26T15:59:16.524Z,7.65
2023-03-26T16:02:04.105Z,8.20
2023-03-26T16:04:52.303Z,8.34
2023-03-26T16:07:34.301Z,8.34
2023-03-26T16:10:02.044Z,8.28
2023-03-26T16:12:33.147Z,7.64
2023-03-26T16:15:06.053Z,8.11
2023-03-26T16:18:15.811Z,8.15
2023-03-26T16:20:50.781Z,7.93
2023-03-26T16:23:47.473Z,8.17
2023-03-26T16:26:52.289Z,8.20
2023-03-26T16:29:19.238Z,8.13
2023-03-26T16:32:10.688Z,8.13
2023-03-26T16:34:53.026Z,8.16
2023-03-26T16:37:32.060Z,8.12
2023-03-26T16:40:17.490Z,8.10
2023-03-26T16:43:11.689Z,8.08
2023-03-26T16:45:49.460Z,8.11
2023-03-26T16:48:47.203Z,8.08
2023-03-26T16:51:20.124Z,8.09
2023-03-26T16:54:07.185Z,7.85
2023-03-26T16:56:48.906Z,7.78
2023-03-26T17:00:04.587Z,7.89
2023-03-26T17:02:57.189Z,7.76
2023-03-26T17:05:51.064Z,7.77
2023-03-26T17:08:35.600Z,7.83
2023-03-26T17:11:21.530Z,7.84
2023-03-26T17:14:03.533Z,7.88
2023-03-26T17:16:43.359Z,7.75
2023-03-26T17:19:17.312Z,7.59
2023-03-26T17:21:58.695Z,7.50
2023-03-26T17:24:50.902Z,7.97
2023-03-26T17:28:30.219Z,8.06
2023-03-26T17:31:06.714Z,8.13
2023-03-26T17:33:42.010Z,8.00
2023-03-26T17:36:11.534Z,8.15
2023-03-26T17:38:45.302Z,8.22
2023-03-26T17:41:17.675Z,8.20
2023-03-26T17:43:52.077Z,6.61
2023-03-26T17:46:21.860Z,8.19
2023-03-26T17:48:56.983Z,7.89
2023-03-26T17:51:38.376Z,8.17
2023-03-26T17:54:27.547Z,8.11
2023-03-26T17:56:58.013Z,7.78
2023-03-26T17:59:27.640Z,7.86
2023-03-26T18:01:58.681Z,7.62
2023-03-26T18:04:32.749Z,7.16
2023-03-26T18:07:04.004Z,7.96
2023-03-26T18:09:52.025Z,7.76
2023-03-26T18:12:37.502Z,7.93
2023-03-26T18:15:23.000Z,7.47
2023-03-26T18:17:50.492Z,5.57
2023-03-26T18:20:26.972Z,7.50
2023-03-26T18:22:54.907Z,7.61
2023-03-26T18:25:28.865Z,7.63
2023-03-26T18:27:57.379Z,7.59
2023-03-26T18:30:26.293Z,7.68
2023-03-26T18:33:00.959Z,7.60
2023-03-26T18:35:42.036Z,7.78
2023-03-26T18:38:17.108Z,7.74
2023-03-26T18:40:46.121Z,7.25
2023-03-26T18:43:28.849Z,7.49
2023-03-26T18:46:01.476Z,7.49
2023-03-26T18:48:30.139Z,7.22
2023-03-26T18:51:04.945Z,7.35
2023-03-26T18:53:45.613Z,7.39
2023-03-26T18:56:20.975Z,7.45
2023-03-26T18:58:52.579Z,7.00
2023-03-26T19:01:25.916Z,7.48
2023-03-26T19:03:54.601Z,7.48
2023-03-26T19:06:23.323Z,7.49
2023-03-26T19:08:50.659Z,7.34
2023-03-26T19:11:18.166Z,7.25
2023-03-26T19:13:58.594Z,7.27
2023-03-26T19:16:33.883Z,6.95
2023-03-26T19:19:05.254Z,7.42
2023-03-26T19:21:34.807Z,7.13
2023-03-26T19:24:04.003Z,7.41
2023-03-26T19:26:33.877Z,7.42
2023-03-26T19:29:05.622Z,6.77
2023-03-26T19:31:39.206Z,7.30
2023-03-26T19:34:13.667Z,7.30
2023-03-26T19:37:04.300Z,7.33
2023-03-26T19:39:41.633Z,7.21
2023-03-26T19:42:15.913Z,7.21
2023-03-26T19:44:43.612Z,7.17
2023-03-26T19:47:19.785Z,6.73
2023-03-26T19:49:56.091Z,6.78
2023-03-26T19:52:26.662Z,7.10
2023-03-26T19:55:15.273Z,7.07
2023-03-26T19:57:43.100Z,7.10
2023-03-26T20:00:15.213Z,6.92
2023-03-26T20:02:45.376Z,7.03
2023-03-26T20:05:23.681Z,6.97
2023-03-26T20:07:50.987Z,6.81
2023-03-26T20:10:18.302Z,6.58
2023-03-26T20:12:45.456Z,6.88
2023-03-26T20:15:21.301Z,6.76
2023-03-26T20:17:52.378Z,6.27
2023-03-26T20:20:19.901Z,6.78
2023-03-26T20:22:48.301Z,6.76
2023-03-26T20:25:19.743Z,6.80
2023-03-26T20:27:46.882Z,6.32
2023-03-26T20:30:16.437Z,6.81
2023-03-26T20:32:46.482Z,6.68
2023-03-26T20:35:35.542Z,6.77
2023-03-26T20:38:03.193Z,6.75
2023-03-26T20:40:30.969Z,6.80
2023-03-26T20:42:57.666Z,6.62
2023-03-26T20:45:26.202Z,6.90
2023-03-26T20:47:54.724Z,6.92
2023-03-26T20:50:23.213Z,6.34
2023-03-26T20:52:50.552Z,6.61
2023-03-26T20:55:21.483Z,5.24
2023-03-26T20:57:49.026Z,6.16
2023-03-26T21:00:23.445Z,6.23
2023-03-26T21:02:54.289Z,6.34
2023-03-26T21:05:24.587Z,6.49
2023-03-26T21:07:52.088Z,6.50
2023-03-26T21:10:22.249Z,6.44
2023-03-26T21:12:53.198Z,6.41
2023-03-26T21:15:23.503Z,6.18
2023-03-26T21:17:52.107Z,6.30
2023-03-26T21:20:19.867Z,6.32
2023-03-26T21:22:46.558Z,6.24
2023-03-26T21:25:21.624Z,6.25
2023-03-26T21:28:29.158Z,6.16
2023-03-26T21:31:04.516Z,5.86
2023-03-26T21:33:31.588Z,6.18
2023-03-26T21:36:01.943Z,6.07
2023-03-26T21:38:32.633Z,6.33
2023-03-26T21:41:02.673Z,6.29
2023-03-26T21:43:30.727Z,6.03
2023-03-26T21:45:58.774Z,6.23
2023-03-26T21:48:26.437Z,6.11
2023-03-26T21:50:54.365Z,6.25
2023-03-26T21:53:22.671Z,6.00
2023-03-26T21:56:03.500Z,6.06
2023-03-26T21:58:40.015Z,5.91
2023-03-26T22:01:24.255Z,5.55
2023-03-26T22:04:10.878Z,5.84
2023-03-26T22:06:46.236Z,5.62
2023-03-26T22:09:16.589Z,5.82
2023-03-26T22:11:45.656Z,5.55
2023-03-26T22:14:13.480Z,5.94
2023-03-26T22:16:41.656Z,5.94
2023-03-26T22:19:08.813Z,6.00
2023-03-26T22:21:35.974Z,5.91
2023-03-26T22:24:04.261Z,6.12
2023-03-26T22:26:31.553Z,5.64
2023-03-26T22:28:58.556Z,5.63
2023-03-26T22:31:26.531Z,6.02
2023-03-26T22:33:54.582Z,6.25
2023-03-26T22:36:22.641Z,6.13
2023-03-26T22:38:53.264Z,5.82
2023-03-26T22:41:20.219Z,6.38
2023-03-26T22:43:47.067Z,6.26
2023-03-26T22:46:14.410Z,6.11
2023-03-26T22:48:41.465Z,6.20
2023-03-26T22:51:09.221Z,6.34
2023-03-26T22:53:36.552Z,5.87
2023-03-26T22:56:04.282Z,6.23
2023-03-26T22:58:33.736Z,6.20
2023-03-26T23:01:08.381Z,6.12
2023-03-26T23:03:36.928Z,6.12
2023-03-26T23:06:07.110Z,5.80
2023-03-26T23:08:35.259Z,6.28
2023-03-26T23:11:02.521Z,5.91
2023-03-26T23:13:29.374Z,6.31
2023-03-26T23:15:57.264Z,5.94
2023-03-26T23:18:24.841Z,6.35
2023-03-26T23:20:56.832Z,6.34
2023-03-26T23:23:29.384Z,6.22
2023-03-26T23:25:58.892Z,5.96
2023-03-26T23:28:27.433Z,6.23
2023-03-26T23:30:55.253Z,5.49
2023-03-26T23:33:25.540Z,6.22
2023-03-26T23:35:59.927Z,6.26
2023-03-26T23:38:43.480Z,6.25
2023-03-26T23:41:15.154Z,6.17
2023-03-26T23:43:54.635Z,6.21
2023-03-26T23:46:24.504Z,6.05
2023-03-26T23:48:52.281Z,5.63
2023-03-26T23:51:24.150Z,6.14
2023-03-26T23:53:51.472Z,6.15
2023-03-26T23:56:18.344Z,5.73
2023-03-26T23:58:45.417Z,6.22
